createdAt,value
2023-03-22T05:03:19.245Z,56.77
2023-03-22T05:05:57.678Z,55.59
2023-03-22T05:08:30.953Z,56.16
2023-03-22T05:11:06.276Z,54.04
2023-03-22T05:13:35.758Z,53.41
2023-03-22T05:16:10.260Z,52.65
2023-03-22T05:18:59.349Z,50.48
2023-03-22T05:21:29.241Z,49.83
2023-03-22T05:35:27.282Z,45.48
2023-03-22T05:46:39.281Z,40.94
2023-03-22T05:49:48.559Z,41.43
2023-03-22T05:52:23.098Z,42.39
2023-03-22T05:55:12.894Z,42.42
2023-03-22T05:57:46.681Z,42.15
2023-03-22T06:00:18.356Z,42.45
2023-03-22T06:03:15.174Z,42.25
2023-03-22T06:05:46.882Z,42.43
2023-03-22T06:08:17.670Z,42.56
2023-03-22T06:10:49.606Z,43.02
2023-03-22T06:13:24.554Z,43.10
2023-03-22T06:15:54.823Z,42.75
2023-03-22T06:18:31.178Z,42.56
2023-03-22T06:21:07.491Z,42.55
2023-03-22T06:23:37.016Z,42.50
2023-03-22T06:26:11.763Z,42.67
2023-03-22T06:28:41.615Z,41.92
2023-03-22T06:31:11.200Z,41.13
2023-03-22T06:33:46.651Z,41.03
2023-03-22T06:36:23.887Z,41.27
2023-03-22T06:39:08.803Z,41.82
2023-03-22T06:41:41.006Z,41.57
2023-03-22T06:44:38.573Z,39.98
2023-03-22T06:47:16.588Z,39.26
2023-03-22T06:49:55.694Z,38.96
2023-03-22T06:52:30.417Z,38.09
2023-03-22T06:54:59.388Z,37.02
2023-03-22T06:57:33.631Z,37.13
2023-03-22T07:00:05.338Z,36.60
2023-03-22T07:02:58.647Z,35.42
2023-03-22T07:05:46.721Z,35.47
2023-03-22T07:08:16.437Z,36.02
2023-03-22T07:11:07.049Z,35.52
2023-03-22T07:13:54.573Z,35.85
2023-03-22T07:16:29.250Z,34.79
2023-03-22T07:19:23.962Z,35.20
2023-03-22T07:22:13.671Z,35.10
2023-03-22T07:25:15.156Z,35.49
2023-03-22T07:27:51.373Z,34.32
2023-03-22T07:30:38.971Z,35.13
2023-03-22T07:33:12.040Z,35.19
2023-03-22T07:35:52.597Z,35.27
2023-03-22T07:38:22.869Z,34.77
2023-03-22T07:40:56.216Z,34.19
2023-03-22T07:56:38.124Z,35.18
2023-03-22T08:00:03.242Z,36.01
2023-03-22T08:12:14.664Z,35.38
2023-03-22T08:14:51.461Z,34.35
2023-03-22T08:17:24.733Z,32.83
2023-03-22T08:19:57.005Z,32.65
2023-03-22T08:22:40.017Z,30.87
2023-03-22T08:25:21.887Z,30.96
2023-03-22T08:27:51.346Z,30.42
2023-03-22T08:30:23.756Z,30.65
2023-03-22T08:32:55.775Z,29.83
2023-03-22T08:35:24.765Z,29.81
2023-03-22T08:37:55.053Z,28.72
2023-03-22T08:40:27.460Z,28.66
2023-03-22T08:43:01.631Z,28.19
2023-03-22T08:45:31.202Z,27.24
2023-03-22T08:48:07.011Z,27.15
2023-03-22T08:50:48.038Z,27.61
2023-03-22T08:53:26.920Z,27.85
2023-03-22T08:56:05.667Z,28.41
2023-03-22T08:58:57.361Z,29.50
2023-03-22T09:01:55.568Z,28.98
2023-03-22T09:04:24.766Z,28.32
2023-03-22T09:06:53.757Z,26.98
2023-03-22T09:09:24.606Z,27.68
2023-03-22T09:11:54.176Z,27.19
2023-03-22T09:14:23.321Z,27.28
2023-03-22T09:16:56.696Z,27.11
2023-03-22T09:19:26.432Z,27.40
2023-03-22T09:21:55.886Z,28.11
2023-03-22T09:24:52.198Z,28.16
2023-03-22T09:27:21.855Z,27.02
2023-03-22T09:29:52.557Z,26.80
2023-03-22T09:32:21.462Z,27.04
2023-03-22T09:34:56.591Z,27.97
2023-03-22T09:37:32.814Z,29.32
2023-03-22T09:40:02.467Z,29.72
2023-03-22T09:42:34.419Z,30.76
2023-03-22T09:45:10.704Z,31.07
2023-03-22T09:47:45.034Z,31.11
2023-03-22T09:50:25.134Z,32.18
2023-03-22T09:52:54.071Z,31.84
2023-03-22T09:55:42.063Z,32.85
2023-03-22T09:58:14.155Z,32.11
2023-03-22T10:01:24.853Z,31.65
2023-03-22T10:04:02.353Z,30.99
2023-03-22T10:06:31.274Z,31.00
2023-03-22T10:09:24.476Z,30.42
2023-03-22T10:12:13.809Z,29.63
2023-03-22T10:15:03.740Z,29.52
2023-03-22T10:17:32.822Z,29.07
2023-03-22T10:20:30.198Z,28.30
2023-03-22T10:22:59.594Z,28.63
2023-03-22T10:25:33.947Z,28.72
2023-03-22T10:28:02.840Z,27.86
2023-03-22T10:30:38.569Z,28.19
2023-03-22T10:33:27.920Z,28.23
2023-03-22T10:35:56.654Z,28.82
2023-03-22T10:38:26.838Z,29.11
2023-03-22T10:40:59.749Z,28.67
2023-03-22T10:43:39.974Z,28.70
2023-03-22T10:46:13.976Z,29.13
2023-03-22T10:48:45.872Z,29.34
2023-03-22T10:51:40.408Z,29.61
2023-03-22T10:54:13.123Z,30.05
2023-03-22T10:56:41.921Z,30.38
2023-03-22T10:59:51.924Z,30.51
2023-03-22T11:02:23.129Z,31.51
2023-03-22T11:04:53.480Z,32.37
2023-03-22T11:07:35.035Z,32.07
2023-03-22T11:10:10.840Z,31.43
2023-03-22T11:12:45.043Z,31.48
2023-03-22T11:15:32.488Z,31.65
2023-03-22T11:18:07.367Z,31.63
2023-03-22T11:20:36.328Z,31.44
2023-03-22T11:23:06.215Z,31.33
2023-03-22T11:25:36.626Z,31.29
2023-03-22T11:28:05.690Z,31.23
2023-03-22T11:30:34.959Z,31.38
2023-03-22T11:33:20.165Z,32.09
2023-03-22T11:35:55.616Z,32.65
2023-03-22T11:38:41.177Z,32.34
2023-03-22T11:41:39.530Z,32.20
2023-03-22T11:44:13.747Z,32.51
2023-03-22T11:46:50.860Z,31.93
2023-03-22T11:49:19.437Z,32.28
2023-03-22T11:51:54.855Z,32.58
2023-03-22T11:54:28.000Z,32.63
2023-03-22T11:56:59.041Z,33.14
2023-03-22T11:59:39.894Z,32.83
2023-03-22T12:02:31.943Z,32.71
2023-03-22T12:05:23.609Z,32.67
2023-03-22T12:08:18.216Z,31.36
2023-03-22T12:11:07.601Z,30.78
2023-03-22T12:13:44.389Z,30.76
2023-03-22T12:16:14.773Z,30.67
2023-03-22T12:18:47.964Z,30.81
2023-03-22T12:21:18.491Z,31.42
2023-03-22T12:23:47.276Z,32.19
2023-03-22T12:26:20.265Z,32.45
2023-03-22T12:29:09.929Z,32.29
2023-03-22T12:32:08.863Z,32.29
2023-03-22T12:34:48.130Z,31.87
2023-03-22T12:37:29.670Z,31.93
2023-03-22T12:40:01.539Z,32.29
2023-03-22T12:42:50.363Z,32.88
2023-03-22T12:45:31.575Z,32.60
2023-03-22T12:48:12.866Z,32.64
2023-03-22T12:50:50.015Z,32.11
2023-03-22T12:53:19.422Z,32.55
2023-03-22T12:55:48.114Z,32.78
2023-03-22T12:58:22.707Z,33.20
2023-03-22T13:01:00.493Z,32.54
2023-03-22T13:03:52.364Z,31.79
2023-03-22T13:06:34.506Z,31.86
2023-03-22T13:09:10.242Z,31.43
2023-03-22T13:11:47.487Z,31.61
2023-03-22T13:14:52.530Z,31.57
2023-03-22T13:17:22.472Z,31.45
2023-03-22T13:20:15.897Z,31.87
2023-03-22T13:22:47.900Z,31.65
2023-03-22T13:25:19.548Z,31.76
2023-03-22T13:27:59.431Z,31.78
2023-03-22T13:30:31.754Z,31.54
2023-03-22T13:33:08.911Z,31.04
2023-03-22T13:35:45.428Z,31.66
2023-03-22T13:38:26.928Z,31.90
2023-03-22T13:41:23.003Z,31.93
2023-03-22T13:43:59.043Z,32.67
2023-03-22T13:46:38.409Z,33.10
2023-03-22T13:49:20.195Z,32.11
2023-03-22T13:51:48.953Z,31.92
2023-03-22T13:54:21.220Z,32.11
2023-03-22T13:56:53.364Z,32.23
2023-03-22T13:59:30.079Z,33.01
2023-03-22T14:02:15.881Z,33.22
2023-03-22T14:04:50.768Z,33.00
2023-03-22T14:07:28.569Z,32.78
2023-03-22T14:10:00.606Z,32.59
2023-03-22T14:13:11.814Z,32.93
2023-03-22T14:15:43.331Z,33.51
2023-03-22T14:18:26.581Z,34.16
2023-03-22T14:21:00.191Z,34.29
